createdAt,value
2023-04-24T00:00:06.852Z,9.03
2023-04-24T00:04:52.355Z,9.00
2023-04-24T00:09:41.855Z,9.70
2023-04-24T00:14:28.452Z,7.67
2023-04-24T00:19:23.606Z,7.67
2023-04-24T00:24:20.736Z,7.87
2023-04-24T00:29:13.599Z,7.30
2023-04-24T00:33:57.083Z,6.97
2023-04-24T00:38:45.993Z,7.63
2023-04-24T00:43:32.595Z,7.17
2023-04-24T00:48:22.463Z,6.57
2023-04-24T00:53:09.236Z,6.53
2023-04-24T00:58:30.391Z,6.23
2023-04-24T01:03:20.992Z,5.63
2023-04-24T01:08:05.733Z,5.77
2023-04-24T01:12:55.667Z,5.47
2023-04-24T01:17:40.944Z,4.97
2023-04-24T01:22:30.709Z,4.50
2023-04-24T01:27:17.492Z,4.13
2023-04-24T01:32:04.751Z,3.43
2023-04-24T01:36:54.439Z,2.97
2023-04-24T01:42:13.808Z,2.70
2023-04-24T01:47:03.711Z,2.27
2023-04-24T01:51:49.095Z,2.67
2023-04-24T01:56:43.864Z,2.70
2023-04-24T02:01:42.559Z,2.20
2023-04-24T02:06:29.967Z,3.13
2023-04-24T02:11:16.423Z,2.47
2023-04-24T02:16:09.426Z,2.77
2023-04-24T02:21:13.185Z,3.17
2023-04-24T02:25:58.013Z,3.53
2023-04-24T02:30:43.684Z,3.60
2023-04-24T02:35:33.093Z,3.60
2023-04-24T02:40:21.610Z,3.03
2023-04-24T02:45:14.731Z,2.47
2023-04-24T02:50:01.087Z,1.60
2023-04-24T02:54:49.177Z,1.43
2023-04-24T02:59:37.743Z,1.23
2023-04-24T03:05:13.251Z,1.30
2023-04-24T03:10:01.868Z,1.10
2023-04-24T03:14:49.132Z,1.13
2023-04-24T03:19:34.655Z,1.20
2023-04-24T03:24:25.731Z,0.93
2023-04-24T03:29:14.165Z,1.03
2023-04-24T03:34:00.723Z,1.07
2023-04-24T03:38:50.847Z,1.00
2023-04-24T03:43:51.263Z,0.80
2023-04-24T03:48:41.713Z,0.70
2023-04-24T03:53:29.999Z,0.93
2023-04-24T03:58:17.102Z,0.90
2023-04-24T04:03:04.425Z,1.03
2023-04-24T04:08:11.491Z,0.73
2023-04-24T04:12:58.290Z,0.80
2023-04-24T04:17:48.010Z,0.70
2023-04-24T04:22:36.863Z,0.73
2023-04-24T04:27:37.669Z,0.90
2023-04-24T04:32:45.438Z,0.80
2023-04-24T04:37:29.793Z,1.10
2023-04-24T04:42:54.286Z,0.77
2023-04-24T04:47:39.209Z,0.90
2023-04-24T04:52:27.701Z,1.10
2023-04-24T04:57:48.156Z,0.80
2023-04-24T05:02:32.620Z,0.70
2023-04-24T05:07:24.977Z,0.70
2023-04-24T05:12:42.747Z,0.60
2023-04-24T05:17:30.364Z,0.60
2023-04-24T05:22:19.738Z,1.00
2023-04-24T05:27:16.267Z,0.60
2023-04-24T05:32:14.041Z,0.63
2023-04-24T05:37:04.225Z,1.00
2023-04-24T05:41:51.962Z,1.73
2023-04-24T05:46:43.190Z,1.60
2023-04-24T05:51:46.837Z,0.70
2023-04-24T05:57:00.484Z,1.10
2023-04-24T06:02:24.157Z,0.73
2023-04-24T06:07:12.863Z,0.70
2023-04-24T06:12:01.121Z,0.97
2023-04-24T06:17:02.144Z,1.00
2023-04-24T06:22:05.425Z,0.80
2023-04-24T06:26:55.262Z,0.60
2023-04-24T06:31:43.569Z,0.70
2023-04-24T06:36:30.153Z,0.80
2023-04-24T06:41:19.467Z,0.80
2023-04-24T06:46:09.133Z,0.73
2023-04-24T06:50:56.478Z,0.63
2023-04-24T06:55:44.460Z,0.60
2023-04-24T07:00:32.557Z,0.50
2023-04-24T07:05:22.788Z,0.60
2023-04-24T07:10:09.617Z,0.47
2023-04-24T07:14:53.987Z,0.50
2023-04-24T07:19:43.655Z,0.60
2023-04-24T07:24:30.903Z,0.60
2023-04-24T07:29:19.754Z,0.80
2023-04-24T07:34:08.009Z,0.40
2023-04-24T07:38:55.193Z,0.80
2023-04-24T07:43:42.039Z,0.50
2023-04-24T07:49:24.404Z,0.40
2023-04-24T07:54:19.871Z,0.57
2023-04-24T07:59:12.474Z,0.50
2023-04-24T08:03:59.288Z,0.63
2023-04-24T08:08:46.929Z,0.67
2023-04-24T08:13:35.188Z,0.53
2023-04-24T08:18:22.328Z,0.50
2023-04-24T08:23:09.744Z,0.40
2023-04-24T08:27:58.029Z,0.50
2023-04-24T08:33:01.932Z,0.70
2023-04-24T08:37:54.616Z,0.63
2023-04-24T08:42:39.853Z,0.57
2023-04-24T08:47:29.842Z,0.50
2023-04-24T08:52:15.657Z,0.47
2023-04-24T08:57:04.505Z,0.40
2023-04-24T09:01:51.890Z,0.50
2023-04-24T09:06:37.733Z,0.70
2023-04-24T09:11:40.615Z,0.50
2023-04-24T09:16:36.556Z,0.70
2023-04-24T09:21:35.408Z,0.70
2023-04-24T09:26:41.604Z,0.70
2023-04-24T09:31:25.957Z,0.50
2023-04-24T09:36:20.090Z,0.60
2023-04-24T09:41:04.970Z,0.70
2023-04-24T09:46:09.773Z,0.40
2023-04-24T09:50:55.092Z,0.40
2023-04-24T09:55:43.269Z,0.40
2023-04-24T10:00:35.129Z,0.43
2023-04-24T10:05:20.252Z,0.57
2023-04-24T10:10:08.492Z,0.40
2023-04-24T10:14:55.125Z,0.53
2023-04-24T10:24:51.132Z,0.47
2023-04-24T10:29:51.111Z,0.50
2023-04-24T10:34:38.638Z,0.40
2023-04-24T10:39:27.432Z,0.63
2023-04-24T10:44:18.246Z,0.60
2023-04-24T10:49:05.725Z,0.70
2023-04-24T10:53:49.379Z,0.60
2023-04-24T10:58:51.825Z,0.93
2023-04-24T11:04:14.304Z,1.00
2023-04-24T11:09:06.609Z,0.60
2023-04-24T11:14:10.413Z,0.60
2023-04-24T11:19:10.952Z,0.63
2023-04-24T11:23:58.011Z,0.50
2023-04-24T11:33:50.076Z,0.80
2023-04-24T11:38:42.368Z,0.50
2023-04-24T11:43:27.191Z,0.30
2023-04-24T11:48:14.447Z,0.90
2023-04-24T11:53:07.498Z,0.53
2023-04-24T11:58:05.046Z,0.67
2023-04-24T12:03:23.048Z,0.60
2023-04-24T12:08:14.744Z,0.50
2023-04-24T12:13:04.968Z,0.50
2023-04-24T12:17:54.041Z,0.57
2023-04-24T12:23:14.638Z,0.70
2023-04-24T12:33:53.470Z,0.67
2023-04-24T12:38:42.512Z,0.80
2023-04-24T12:43:26.026Z,0.80
2023-04-24T12:48:35.919Z,0.70
2023-04-24T12:53:21.408Z,0.80
2023-04-24T12:58:07.851Z,0.93
2023-04-24T13:02:56.201Z,0.73
2023-04-24T13:07:43.832Z,0.70
2023-04-24T13:12:48.547Z,0.90
2023-04-24T13:17:37.969Z,0.93
2023-04-24T13:22:21.652Z,1.17
2023-04-24T13:27:13.351Z,1.00
2023-04-24T13:32:05.014Z,0.70
2023-04-24T13:37:02.705Z,0.80
2023-04-24T13:41:50.360Z,0.70
2023-04-24T13:46:40.442Z,0.90
2023-04-24T13:51:41.913Z,1.00
2023-04-24T13:56:44.790Z,0.93
2023-04-24T14:01:55.720Z,0.80
2023-04-24T14:07:30.560Z,1.00
2023-04-24T14:12:32.679Z,0.77
2023-04-24T14:17:18.153Z,0.90
2023-04-24T14:22:10.072Z,1.13
2023-04-24T14:26:53.949Z,0.90
2023-04-24T14:31:59.996Z,1.67
2023-04-24T14:37:04.189Z,1.07
2023-04-24T14:41:51.325Z,1.20
2023-04-24T14:46:38.339Z,0.90
2023-04-24T14:51:28.593Z,1.00
2023-04-24T14:56:15.449Z,1.20
2023-04-24T15:01:04.615Z,1.10
2023-04-24T15:05:54.269Z,0.90
2023-04-24T15:10:39.431Z,0.87
2023-04-24T15:15:44.309Z,0.60
2023-04-24T15:20:31.445Z,0.70
2023-04-24T15:25:17.882Z,0.90
2023-04-24T15:30:22.153Z,1.00
2023-04-24T15:35:12.411Z,1.13
2023-04-24T15:40:00.687Z,0.90
2023-04-24T15:45:50.166Z,0.80
2023-04-24T15:51:10.604Z,1.07
2023-04-24T15:55:58.650Z,0.97
2023-04-24T16:00:52.093Z,1.20
2023-04-24T16:05:36.557Z,1.00
2023-04-24T16:10:38.014Z,1.40
2023-04-24T16:15:44.201Z,1.10
2023-04-24T16:20:52.404Z,0.80
2023-04-24T16:25:52.993Z,0.70
2023-04-24T16:30:53.724Z,0.70
2023-04-24T16:35:45.438Z,0.90
2023-04-24T16:41:06.771Z,1.07
2023-04-24T16:45:50.443Z,0.90
2023-04-24T16:50:37.397Z,0.63
2023-04-24T16:55:24.582Z,0.70
2023-04-24T17:00:18.907Z,0.80
2023-04-24T17:05:07.748Z,0.70
2023-04-24T17:09:51.316Z,1.00
2023-04-24T17:14:38.911Z,0.93
2023-04-24T17:19:45.280Z,1.10
2023-04-24T17:24:32.128Z,0.83
2023-04-24T17:29:31.050Z,0.93
2023-04-24T17:34:23.875Z,0.50
2023-04-24T17:39:13.369Z,0.70
2023-04-24T17:43:59.920Z,0.63
2023-04-24T17:48:49.395Z,0.60
2023-04-24T17:53:40.417Z,0.40
2023-04-24T18:03:58.416Z,0.40
2023-04-24T18:13:53.260Z,0.70
2023-04-24T18:18:39.555Z,0.60
2023-04-24T18:23:26.714Z,0.40
2023-04-24T18:28:48.445Z,0.47
2023-04-24T18:33:56.873Z,0.63
2023-04-24T18:38:57.374Z,0.50
2023-04-24T18:49:52.392Z,0.50
2023-04-24T18:54:44.301Z,0.77
2023-04-24T18:59:30.680Z,0.53
2023-04-24T19:04:16.125Z,0.70
2023-04-24T19:09:17.342Z,0.63
2023-04-24T19:14:10.102Z,0.53
2023-04-24T19:24:49.352Z,0.80
2023-04-24T19:29:53.768Z,0.70
2023-04-24T19:34:40.571Z,1.00
2023-04-24T19:39:31.904Z,1.03
2023-04-24T19:49:51.370Z,1.03
2023-04-24T19:54:38.802Z,1.10
2023-04-24T19:59:30.727Z,1.20
2023-04-24T20:04:15.659Z,1.23
2023-04-24T20:09:02.236Z,1.20
2023-04-24T20:13:49.554Z,1.10
2023-04-24T20:18:56.529Z,1.10
2023-04-24T20:23:43.438Z,1.40
2023-04-24T20:28:32.805Z,1.57
2023-04-24T20:33:19.586Z,1.50
2023-04-24T20:38:26.301Z,1.60
2023-04-24T20:43:10.944Z,1.63
2023-04-24T20:47:58.474Z,1.70
2023-04-24T20:52:48.409Z,1.73
2023-04-24T20:57:39.486Z,1.80
2023-04-24T21:02:23.112Z,1.83
2023-04-24T21:07:15.462Z,1.70
2023-04-24T21:11:59.192Z,1.80
2023-04-24T21:16:47.277Z,1.80
2023-04-24T21:21:50.146Z,2.00
2023-04-24T21:26:38.947Z,2.07
2023-04-24T21:31:25.855Z,2.00
2023-04-24T21:36:13.742Z,2.10
2023-04-24T21:41:24.957Z,2.00
2023-04-24T21:46:24.914Z,2.40
2023-04-24T21:51:09.821Z,2.30
2023-04-24T21:56:18.971Z,2.63
2023-04-24T22:01:04.330Z,2.73
2023-04-24T22:05:51.708Z,2.20
2023-04-24T22:10:54.649Z,2.10
2023-04-24T22:15:41.662Z,2.20
2023-04-24T22:20:34.730Z,2.00
2023-04-24T22:25:19.700Z,2.20
2023-04-24T22:30:08.941Z,2.40
2023-04-24T22:34:55.369Z,2.87
2023-04-24T22:39:44.266Z,2.73
2023-04-24T22:44:29.945Z,2.40
2023-04-24T22:49:22.376Z,3.03
2023-04-24T22:54:06.652Z,2.80
2023-04-24T22:58:55.171Z,3.00
2023-04-24T23:03:44.040Z,3.07
2023-04-24T23:08:30.664Z,3.00
2023-04-24T23:13:20.960Z,2.90
2023-04-24T23:18:24.557Z,3.67
2023-04-24T23:23:11.575Z,3.80
2023-04-24T23:27:59.797Z,3.40
2023-04-24T23:32:47.016Z,3.80
2023-04-24T23:37:38.604Z,3.30
2023-04-24T23:42:22.741Z,3.30
2023-04-24T23:47:45.841Z,2.93
2023-04-24T23:52:34.584Z,3.33
2023-04-24T23:57:24.676Z,3.03
